Time;durP1;ratioP1;P1;durP2;ratioP2;P2;SDS_P1;SDS_P2;PMS_P1;PMS_P2;Temp;Humidity;BMP_temperature;BMP_pressure;BME280_temperature;BME280_humidity;BME280_pressure;Samples;Min_cycle;Max_cycle;Signal;HPM_P1;HPM_P2
2022/05/01 00:01:59;;;;;;;11.10;8.70;;;;;;;;;;5032484;28;20466;-71
2022/05/01 00:04:25;;;;;;;10.23;8.07;;;9.80;99.90;;;;;;5033623;28;20041;-71
2022/05/01 00:06:51;;;;;;;8.50;7.47;;;;;;;;;;5032394;28;20026;-72
2022/05/01 00:09:17;;;;;;;10.33;8.67;;;;;;;;;;5031856;28;20802;-71
2022/05/01 00:11:43;;;;;;;11.73;9.67;;;9.80;99.90;;;;;;5037904;28;20095;-71
2022/05/01 00:14:08;;;;;;;12.00;9.83;;;9.70;99.90;;;;;;5031053;28;20037;-71
2022/05/01 00:16:34;;;;;;;10.03;8.50;;;;;;;;;;5035380;28;20033;-71
2022/05/01 00:19:01;;;;;;;9.90;7.93;;;;;;;;;;5031130;28;20022;-71
2022/05/01 00:21:26;;;;;;;16.87;8.90;;;;;;;;;;5031434;28;20517;-71
2022/05/01 00:23:52;;;;;;;9.80;8.73;;;;;;;;;;5032922;28;20117;-71
2022/05/01 00:26:18;;;;;;;10.73;7.30;;;;;;;;;;5031895;28;20382;-71
2022/05/01 00:28:44;;;;;;;12.47;8.50;;;9.60;99.90;;;;;;5031286;28;20445;-72
2022/05/01 00:31:10;;;;;;;11.30;9.67;;;;;;;;;;5032974;28;20033;-72
2022/05/01 00:36:28;;;;;;;10.13;9.07;;;9.80;99.90;;;;;;5032595;28;20036;-71
2022/05/01 00:39:02;;;;;;;11.80;9.03;;;9.70;99.90;;;;;;5032551;28;20433;-72
2022/05/01 00:41:30;;;;;;;;;;;9.50;99.90;;;;;;5031065;28;20133;-72
2022/05/01 00:44:12;;;;;;;12.07;8.73;;;9.70;99.10;;;;;;5031632;28;19920;-72
2022/05/01 00:46:41;;;;;;;11.23;9.13;;;9.80;99.90;;;;;;5046229;28;20500;-72
2022/05/01 00:49:09;;;;;;;11.60;8.30;;;9.60;99.90;;;;;;5051204;28;20056;-72
2022/05/01 00:51:50;;;;;;;11.33;8.73;;;9.60;99.90;;;;;;5051081;28;20021;-72
2022/05/01 00:54:18;;;;;;;10.00;8.90;;;9.60;99.90;;;;;;5051113;28;20542;-72
2022/05/01 00:56:51;;;;;;;11.50;7.77;;;9.50;99.90;;;;;;5050744;28;20028;-72
2022/05/01 00:59:17;;;;;;;10.07;8.67;;;;;;;;;;5050820;28;20037;-72
2022/05/01 01:01:44;;;;;;;11.50;8.93;;;9.50;99.90;;;;;;5050778;28;20028;-72
2022/05/01 01:04:10;;;;;;;10.37;9.20;;;9.40;99.90;;;;;;5050690;28;20059;-72
2022/05/01 01:06:40;;;;;;;11.30;9.27;;;9.60;99.90;;;;;;5050986;28;20029;-72
2022/05/01 01:09:06;;;;;;;11.37;9.57;;;9.60;99.90;;;;;;5050992;28;20025;-72
2022/05/01 01:11:32;;;;;;;11.57;10.37;;;9.50;99.90;;;;;;5050107;28;20027;-72
2022/05/01 01:14:03;;;;;;;11.33;8.53;;;9.50;99.90;;;;;;5050900;28;20043;-72
2022/05/01 01:16:29;;;;;;;11.70;9.60;;;;;;;;;;5050656;28;20025;-72
2022/05/01 01:18:55;;;;;;;11.37;9.33;;;9.50;99.90;;;;;;5051129;28;20527;-72
2022/05/01 01:21:21;;;;;;;8.23;7.43;;;;;;;;;;5050384;28;20115;-72
2022/05/01 01:23:47;;;;;;;10.90;9.80;;;9.50;99.90;;;;;;5050692;28;20044;-72
2022/05/01 01:26:14;;;;;;;14.33;9.30;;;9.50;99.90;;;;;;5049945;28;20029;-72
2022/05/01 01:28:41;;;;;;;10.83;8.87;;;9.50;99.90;;;;;;5050377;28;20475;-72
2022/05/01 01:33:56;;;;;;;15.80;9.13;;;9.50;99.90;;;;;;5051081;28;20032;-71
2022/05/01 01:36:24;;;;;;;13.30;10.37;;;9.50;99.90;;;;;;5050138;28;20032;-72
2022/05/01 01:38:50;;;;;;;12.30;9.37;;;;;;;;;;5050382;28;20040;-72
2022/05/01 01:41:29;;;;;;;10.57;8.70;;;9.40;99.90;;;;;;5049961;28;20079;-72
2022/05/01 01:43:55;;;;;;;11.63;10.43;;;9.40;99.90;;;;;;5050283;28;20497;-71
2022/05/01 01:46:21;;;;;;;13.10;8.27;;;9.50;99.90;;;;;;5050337;28;20024;-72
2022/05/01 01:48:46;;;;;;;12.83;10.57;;;9.40;99.90;;;;;;5049997;28;20455;-72
2022/05/01 01:51:13;;;;;;;15.37;10.63;;;9.60;99.90;;;;;;5050071;28;20036;-72
2022/05/01 01:53:39;;;;;;;10.97;9.97;;;;;;;;;;5049805;28;20033;-71
2022/05/01 01:56:07;;;;;;;11.90;9.80;;;;;;;;;;5049812;28;20111;-72
2022/05/01 01:58:33;;;;;;;12.10;10.37;;;9.50;99.90;;;;;;5050052;28;20024;-72
2022/05/01 02:00:59;;;;;;;11.70;10.50;;;9.40;99.90;;;;;;5050104;28;20132;-72
2022/05/01 02:03:25;;;;;;;10.87;9.80;;;9.50;99.90;;;;;;5049860;28;20025;-72
2022/05/01 02:05:51;;;;;;;11.07;9.03;;;9.40;99.90;;;;;;5050330;28;20039;-72
2022/05/01 02:08:17;;;;;;;9.67;8.77;;;9.40;99.90;;;;;;5048165;28;20021;-72
2022/05/01 02:10:44;;;;;;;13.73;9.93;;;9.30;99.90;;;;;;5049928;28;20499;-72
2022/05/01 02:13:10;;;;;;;10.70;8.20;;;9.30;99.90;;;;;;5050049;28;20386;-72
2022/05/01 02:15:37;;;;;;;12.27;10.93;;;9.20;99.90;;;;;;5050057;28;20037;-71
2022/05/01 02:18:04;;;;;;;11.77;9.53;;;9.30;99.90;;;;;;5050054;28;20040;-71
2022/05/01 02:23:23;;;;;;;12.60;11.30;;;9.20;99.90;;;;;;5029116;28;20056;-72
2022/05/01 02:25:49;;;;;;;16.47;10.60;;;;;;;;;;5028766;28;20382;-72
2022/05/01 02:28:16;;;;;;;13.87;10.83;;;9.20;99.90;;;;;;5029659;28;20028;-72
2022/05/01 02:30:41;;;;;;;14.67;10.83;;;9.20;99.90;;;;;;5045214;28;20433;-72
2022/05/01 02:33:08;;;;;;;15.30;11.23;;;9.10;99.90;;;;;;5049903;28;20446;-72
2022/05/01 02:35:36;;;;;;;15.20;10.40;;;9.20;99.90;;;;;;5049806;28;20025;-72
2022/05/01 02:38:03;;;;;;;14.80;11.47;;;9.20;99.90;;;;;;5049082;28;20036;-71
2022/05/01 02:40:29;;;;;;;15.23;11.70;;;9.10;99.90;;;;;;5051579;28;20057;-72
2022/05/01 02:42:58;;;;;;;14.17;9.20;;;9.10;99.90;;;;;;5052691;28;20036;-71
2022/05/01 02:45:24;;;;;;;13.47;10.97;;;9.10;99.90;;;;;;5053451;28;20540;-72
2022/05/01 02:47:50;;;;;;;13.50;11.00;;;;;;;;;;5053808;28;20036;-72
2022/05/01 02:50:16;;;;;;;13.37;10.90;;;;;;;;;;5053643;28;20101;-72
2022/05/01 02:52:41;;;;;;;12.70;10.00;;;9.20;99.90;;;;;;5053507;28;20113;-72
2022/05/01 02:55:07;;;;;;;10.83;9.67;;;9.00;99.90;;;;;;5053521;28;20029;-72
2022/05/01 02:57:33;;;;;;;12.10;9.80;;;;;;;;;;5053551;28;20024;-72
2022/05/01 02:59:59;;;;;;;12.60;10.90;;;9.00;99.90;;;;;;5053512;28;20091;-72
2022/05/01 03:02:24;;;;;;;15.13;11.03;;;9.10;99.90;;;;;;5053137;28;20029;-71
2022/05/01 03:04:50;;;;;;;13.77;10.90;;;;;;;;;;5053254;28;20126;-71
2022/05/01 03:07:17;;;;;;;13.30;11.53;;;9.00;99.90;;;;;;5049900;28;20452;-72
2022/05/01 03:09:42;;;;;;;12.73;11.43;;;9.00;99.90;;;;;;5050698;28;20103;-71
2022/05/01 03:12:08;;;;;;;12.80;10.47;;;;;;;;;;5053125;28;20424;-72
2022/05/01 03:14:34;;;;;;;15.60;12.60;;;9.00;99.90;;;;;;5052808;28;20124;-72
2022/05/01 03:16:59;;;;;;;13.50;12.07;;;9.00;99.90;;;;;;5053177;28;20452;-72
2022/05/01 03:22:10;;;;;;;16.23;11.77;;;;;;;;;;5052480;28;20024;-72
2022/05/01 03:24:36;;;;;;;13.80;10.90;;;8.90;99.90;;;;;;5052945;28;20377;-71
2022/05/01 03:27:02;;;;;;;11.60;9.43;;;;;;;;;;5052997;28;20025;-72
2022/05/01 03:29:28;;;;;;;17.97;11.37;;;9.00;99.90;;;;;;5052671;28;20029;-72
2022/05/01 03:31:54;;;;;;;13.13;10.10;;;;;;;;;;5053035;28;20436;-72
2022/05/01 03:34:20;;;;;;;14.07;11.70;;;8.80;99.90;;;;;;5052397;28;20092;-71
2022/05/01 03:36:47;;;;;;;10.77;9.63;;;8.80;99.90;;;;;;5052056;28;20394;-72
2022/05/01 03:39:13;;;;;;;12.03;10.77;;;;;;;;;;5051504;28;20025;-72
2022/05/01 03:41:39;;;;;;;14.23;10.57;;;;;;;;;;5051472;28;20175;-72
2022/05/01 03:44:07;;;;;;;14.17;10.27;;;8.80;99.90;;;;;;5051053;28;20116;-72
2022/05/01 03:46:33;;;;;;;11.30;10.10;;;;;;;;;;5050380;28;20535;-71
2022/05/01 03:48:59;;;;;;;12.90;10.13;;;8.80;99.90;;;;;;5050885;28;20037;-71
2022/05/01 03:51:24;;;;;;;12.30;10.13;;;8.80;99.90;;;;;;5051402;28;20029;-72
2022/05/01 03:53:50;;;;;;;12.83;9.53;;;8.60;99.90;;;;;;5052650;28;20499;-72
2022/05/01 03:56:15;;;;;;;11.93;10.00;;;9.10;99.90;;;;;;5052121;28;20056;-71
2022/05/01 03:58:41;;;;;;;13.97;11.00;;;8.70;99.90;;;;;;5052591;28;20491;-72
2022/05/01 04:01:07;;;;;;;12.00;9.03;;;8.60;99.90;;;;;;5052113;28;20286;-72
2022/05/01 04:03:33;;;;;;;13.40;10.30;;;8.70;99.90;;;;;;5051429;28;20538;-72
2022/05/01 04:05:59;;;;;;;11.13;8.93;;;8.60;99.90;;;;;;5052330;28;20060;-71
2022/05/01 04:08:24;;;;;;;14.17;11.23;;;8.60;99.90;;;;;;5052005;28;20028;-71
2022/05/01 04:10:50;;;;;;;11.47;10.20;;;8.60;99.90;;;;;;5052393;28;20388;-71
2022/05/01 04:13:15;;;;;;;11.70;9.70;;;8.50;99.90;;;;;;5051993;28;20452;-72
2022/05/01 04:15:41;;;;;;;11.73;10.47;;;8.50;99.90;;;;;;5051834;28;20371;-71
2022/05/01 04:18:08;;;;;;;12.57;10.10;;;8.60;99.90;;;;;;5051036;28;20072;-71
2022/05/01 04:20:35;;;;;;;12.33;9.40;;;8.60;99.90;;;;;;5051981;28;20450;-71
2022/05/01 04:23:03;;;;;;;10.83;9.73;;;8.60;99.90;;;;;;5051929;28;20036;-72
2022/05/01 04:25:29;;;;;;;12.00;9.57;;;8.70;99.90;;;;;;5051685;28;20404;-71
2022/05/01 04:28:04;;;;;;;14.07;11.43;;;8.60;99.90;;;;;;5051999;28;20025;-71
2022/05/01 04:30:31;;;;;;;11.13;9.80;;;8.60;99.90;;;;;;5051506;28;20029;-71
2022/05/01 04:33:09;;;;;;;14.97;9.73;;;8.60;99.90;;;;;;5051293;28;20400;-71
2022/05/01 04:35:45;;;;;;;12.83;10.80;;;8.60;99.90;;;;;;5031799;28;20025;-72
2022/05/01 04:38:17;;;;;;;12.40;10.13;;;8.80;99.90;;;;;;5031592;28;20024;-72
2022/05/01 04:40:46;;;;;;;12.60;9.63;;;8.60;99.90;;;;;;5031270;28;20064;-71
2022/05/01 04:43:14;;;;;;;10.93;9.27;;;8.60;99.90;;;;;;5046194;28;20083;-71
2022/05/01 04:45:42;;;;;;;15.20;10.17;;;8.30;99.90;;;;;;5050117;28;20041;-71
2022/05/01 04:48:09;;;;;;;15.07;12.20;;;8.60;99.90;;;;;;5050672;28;20052;-72
2022/05/01 04:50:35;;;;;;;13.43;11.83;;;8.70;99.90;;;;;;5031541;28;20033;-71
2022/05/01 04:53:02;;;;;;;14.13;11.37;;;8.60;99.90;;;;;;5031428;28;20021;-72
2022/05/01 04:55:29;;;;;;;14.43;10.70;;;8.70;99.90;;;;;;5031034;28;20088;-72
2022/05/01 04:57:55;;;;;;;14.73;11.73;;;8.70;99.90;;;;;;5046872;28;20495;-72
2022/05/01 05:00:21;;;;;;;12.47;11.13;;;8.60;99.90;;;;;;5031426;28;20057;-72
2022/05/01 05:02:51;;;;;;;13.90;10.53;;;8.70;99.90;;;;;;5030315;28;20229;-72
2022/05/01 05:05:18;;;;;;;12.40;11.10;;;8.70;99.90;;;;;;5048148;28;20029;-72
2022/05/01 05:07:44;;;;;;;14.93;11.30;;;;;;;;;;5051002;28;20111;-72
2022/05/01 05:10:11;;;;;;;17.17;12.03;;;8.70;99.90;;;;;;5050763;28;20630;-72
2022/05/01 05:12:38;;;;;;;12.87;11.33;;;8.80;99.90;;;;;;5038293;28;20029;-71
2022/05/01 05:15:08;;;;;;;12.67;9.87;;;8.80;99.90;;;;;;5031221;28;20036;-71
2022/05/01 05:17:34;;;;;;;12.73;10.67;;;8.80;99.90;;;;;;5030846;28;20025;-71
2022/05/01 05:20:00;;;;;;;14.60;11.57;;;8.90;99.90;;;;;;5031447;28;20032;-71
2022/05/01 05:22:26;;;;;;;15.17;11.53;;;8.90;99.90;;;;;;5046604;28;20479;-71
2022/05/01 05:24:51;;;;;;;14.00;11.03;;;9.00;99.90;;;;;;5044839;28;20040;-71
2022/05/01 05:27:25;;;;;;;14.70;13.20;;;9.10;99.90;;;;;;5036138;28;20040;-71
2022/05/01 05:29:52;;;;;;;14.23;12.73;;;9.00;99.90;;;;;;5043262;28;20036;-71
2022/05/01 05:32:18;;;;;;;12.33;10.43;;;8.70;99.90;;;;;;5050140;28;20029;-72
2022/05/01 05:34:44;;;;;;;12.23;11.00;;;9.10;99.90;;;;;;5050971;28;20025;-72
2022/05/01 05:37:09;;;;;;;14.37;12.40;;;9.30;99.90;;;;;;5048841;28;20025;-72
2022/05/01 05:39:35;;;;;;;16.13;11.50;;;;;;;;;;5048913;28;20098;-72
2022/05/01 05:42:01;;;;;;;12.77;11.20;;;9.40;99.90;;;;;;5048831;28;20638;-72
2022/05/01 05:44:26;;;;;;;15.50;12.07;;;9.30;99.90;;;;;;5047667;28;20045;-72
2022/05/01 05:46:51;;;;;;;14.63;11.13;;;9.80;99.90;;;;;;5049032;28;20104;-72
2022/05/01 05:49:17;;;;;;;12.87;11.10;;;9.90;99.90;;;;;;5049599;28;20039;-72
2022/05/01 05:51:43;;;;;;;12.80;11.00;;;;;;;;;;5050232;28;20027;-72
2022/05/01 05:54:08;;;;;;;12.37;10.77;;;9.50;99.90;;;;;;5050120;28;20388;-72
2022/05/01 05:56:34;;;;;;;13.73;11.07;;;9.60;99.90;;;;;;5050230;28;20457;-72
2022/05/01 05:58:59;;;;;;;13.77;10.67;;;9.80;99.90;;;;;;5050437;28;20112;-72
2022/05/01 06:01:25;;;;;;;12.47;11.00;;;9.60;99.90;;;;;;5049544;28;20428;-72
2022/05/01 06:03:51;;;;;;;12.33;10.47;;;9.80;99.90;;;;;;5050292;28;20040;-72
2022/05/01 06:06:18;;;;;;;11.93;10.73;;;10.00;99.90;;;;;;5049818;28;20032;-71
2022/05/01 06:08:44;;;;;;;13.87;12.43;;;9.80;99.90;;;;;;5049952;28;20545;-72
2022/05/01 06:11:09;;;;;;;13.53;10.90;;;10.00;99.90;;;;;;5049984;28;20111;-72
2022/05/01 06:13:35;;;;;;;15.20;12.03;;;10.10;99.90;;;;;;5049661;28;20456;-71
2022/05/01 06:16:01;;;;;;;13.00;11.03;;;;;;;;;;5049034;28;20033;-72
2022/05/01 06:18:26;;;;;;;13.97;11.43;;;;;;;;;;5049512;28;20039;-72
2022/05/01 06:20:53;;;;;;;14.70;12.73;;;10.40;99.90;;;;;;5050030;28;20021;-72
2022/05/01 06:23:19;;;;;;;14.47;12.63;;;10.40;99.90;;;;;;5049957;28;20037;-72
2022/05/01 06:25:46;;;;;;;15.73;12.33;;;;;;;;;;5049911;28;20123;-72
2022/05/01 06:28:12;;;;;;;13.70;12.30;;;10.80;99.90;;;;;;5049738;28;20021;-72
2022/05/01 06:30:41;;;;;;;16.50;12.88;;;10.90;99.90;;;;;;5049421;28;20041;-72
2022/05/01 06:33:13;;;;;;;13.43;10.57;;;11.00;99.90;;;;;;5049492;28;20074;-72
2022/05/01 06:35:39;;;;;;;13.45;11.27;;;11.10;99.90;;;;;;5029909;28;20029;-72
2022/05/01 06:38:05;;;;;;;13.43;10.90;;;;;;;;;;5029653;28;20029;-72
2022/05/01 06:40:31;;;;;;;13.25;11.85;;;11.40;99.90;;;;;;5029756;28;20099;-72
2022/05/01 06:42:57;;;;;;;12.37;10.43;;;11.50;99.90;;;;;;5028047;28;20029;-72
2022/05/01 06:45:22;;;;;;;11.95;10.65;;;;;;;;;;5029685;28;20125;-72
2022/05/01 06:47:48;;;;;;;16.07;11.83;;;;;;;;;;5029851;28;20033;-72
2022/05/01 06:50:14;;;;;;;12.90;11.57;;;11.90;99.90;;;;;;5047667;28;20043;-72
2022/05/01 06:52:39;;;;;;;13.98;12.50;;;12.00;99.90;;;;;;5049530;28;20377;-72
2022/05/01 06:55:06;;;;;;;15.52;12.73;;;12.10;99.50;;;;;;5049295;28;20032;-72
2022/05/01 06:57:31;;;;;;;13.20;11.02;;;12.30;99.90;;;;;;5049208;28;20036;-72
2022/05/01 06:59:56;;;;;;;12.83;10.00;;;12.20;99.90;;;;;;5049519;28;20029;-72
2022/05/01 07:02:22;;;;;;;12.15;10.95;;;12.20;99.90;;;;;;5048030;28;20017;-73
2022/05/01 07:04:47;;;;;;;13.68;12.30;;;12.50;99.90;;;;;;5049892;28;20121;-72
2022/05/01 07:07:13;;;;;;;12.43;11.13;;;12.70;99.90;;;;;;5048978;28;20064;-72
2022/05/01 07:09:39;;;;;;;15.65;10.73;;;12.70;99.90;;;;;;5040258;28;20026;-72
2022/05/01 07:12:06;;;;;;;13.90;11.23;;;12.70;99.90;;;;;;5031643;28;20029;-72
2022/05/01 07:14:32;;;;;;;17.50;13.32;;;;;;;;;;5029744;28;20019;-72
2022/05/01 07:16:57;;;;;;;18.70;13.82;;;12.70;99.90;;;;;;5028405;28;20025;-72
2022/05/01 07:19:23;;;;;;;16.45;12.63;;;;;;;;;;5039982;28;20366;-72
2022/05/01 07:21:50;;;;;;;12.80;11.43;;;12.90;99.90;;;;;;5032305;28;20018;-73
2022/05/01 07:24:16;;;;;;;13.27;11.23;;;;;;;;;;5029360;28;20087;-73
2022/05/01 07:26:41;;;;;;;12.25;11.15;;;13.00;99.90;;;;;;5031621;28;20640;-73
2022/05/01 07:29:08;;;;;;;12.05;10.93;;;13.00;99.90;;;;;;5035489;28;20386;-73
2022/05/01 07:31:34;;;;;;;13.48;11.18;;;;;;;;;;5052480;28;20083;-73
2022/05/01 07:34:00;;;;;;;10.45;9.45;;;;;;;;;;5052582;28;20032;-73
2022/05/01 07:36:25;;;;;;;11.93;10.73;;;13.20;99.90;;;;;;5052535;28;20029;-73
2022/05/01 07:38:51;;;;;;;14.85;12.73;;;13.20;99.90;;;;;;5051795;28;20055;-74
2022/05/01 07:41:17;;;;;;;15.18;11.15;;;13.30;99.90;;;;;;5051945;28;20045;-73
2022/05/01 07:43:46;;;;;;;11.27;9.90;;;13.10;99.90;;;;;;5051264;28;20381;-74
2022/05/01 07:46:12;;;;;;;12.02;10.45;;;13.50;99.90;;;;;;5052462;28;20377;-73
2022/05/01 07:48:38;;;;;;;10.40;8.93;;;13.60;99.90;;;;;;5052481;28;20090;-73
2022/05/01 07:51:04;;;;;;;10.90;9.60;;;13.70;99.90;;;;;;5052646;28;20048;-74
2022/05/01 07:53:29;;;;;;;12.00;10.45;;;13.60;99.90;;;;;;5052343;28;20035;-74
2022/05/01 07:55:57;;;;;;;10.05;8.88;;;13.60;99.90;;;;;;5052345;28;20480;-74
2022/05/01 07:58:23;;;;;;;15.55;9.52;;;13.80;99.90;;;;;;5052310;28;20096;-74
2022/05/01 08:00:49;;;;;;;11.23;9.45;;;;;;;;;;5052631;28;20029;-73
2022/05/01 08:05:59;;;;;;;10.65;9.63;;;13.50;99.90;;;;;;5052668;28;20098;-74
2022/05/01 08:08:26;;;;;;;11.45;10.00;;;13.60;99.90;;;;;;5051874;28;20404;-74
2022/05/01 08:10:52;;;;;;;11.63;9.90;;;13.50;99.90;;;;;;5051764;28;20083;-74
2022/05/01 08:13:17;;;;;;;10.73;8.95;;;;;;;;;;5051994;28;20025;-73
2022/05/01 08:15:43;;;;;;;13.82;10.70;;;14.00;99.90;;;;;;5052132;28;20038;-74
2022/05/01 08:21:06;;;;;;;13.02;9.68;;;14.40;99.90;;;;;;5052101;28;20417;-74
2022/05/01 08:23:32;;;;;;;12.75;9.77;;;14.20;99.90;;;;;;5051882;28;20108;-74
2022/05/01 08:26:04;;;;;;;11.68;9.70;;;14.50;99.90;;;;;;5051284;28;20052;-74
2022/05/01 08:28:31;;;;;;;10.02;9.02;;;14.50;99.90;;;;;;5051707;28;20020;-75
2022/05/01 08:30:57;;;;;;;11.20;9.35;;;14.30;93.90;;;;;;5051902;28;20036;-74
2022/05/01 08:33:22;;;;;;;9.60;8.68;;;14.60;99.90;;;;;;5051750;28;20020;-74
2022/05/01 08:35:48;;;;;;;10.73;9.73;;;14.90;99.90;;;;;;5051718;28;20048;-74
2022/05/01 08:38:13;;;;;;;9.77;8.77;;;14.80;99.90;;;;;;5049952;28;20025;-74
2022/05/01 08:40:40;;;;;;;12.15;9.90;;;14.60;92.90;;;;;;5051001;28;20045;-74
2022/05/01 08:43:05;;;;;;;11.52;10.43;;;14.90;99.90;;;;;;5051633;28;20021;-74
2022/05/01 08:45:53;;;;;;;10.82;9.70;;;14.80;92.60;;;;;;5051416;28;20044;-74
2022/05/01 08:48:30;;;;;;;10.88;8.95;;;15.20;92.20;;;;;;5050580;28;20029;-74
2022/05/01 08:50:56;;;;;;;10.30;8.48;;;15.40;91.80;;;;;;5051275;28;20022;-74
2022/05/01 08:53:23;;;;;;;16.85;10.82;;;15.60;92.00;;;;;;5051541;28;20021;-74
2022/05/01 08:55:50;;;;;;;10.73;9.63;;;15.50;90.90;;;;;;5050825;28;20048;-74
2022/05/01 08:58:16;;;;;;;10.02;8.98;;;15.30;90.90;;;;;;5049963;28;20048;-74
2022/05/01 09:00:43;;;;;;;10.40;8.90;;;15.40;98.20;;;;;;5048643;28;20110;-74
2022/05/01 09:03:08;;;;;;;6.82;6.13;;;15.20;90.90;;;;;;5051093;28;20083;-74
2022/05/01 09:05:34;;;;;;;11.55;7.65;;;15.00;97.30;;;;;;5050506;28;20033;-74
2022/05/01 09:07:59;;;;;;;10.23;7.43;;;15.30;97.70;;;;;;5050331;28;20021;-74
2022/05/01 09:10:27;;;;;;;8.75;7.15;;;15.00;90.90;;;;;;5050981;28;20068;-74
2022/05/01 09:12:53;;;;;;;9.25;7.25;;;14.90;97.70;;;;;;5050352;28;20028;-74
2022/05/01 09:15:33;;;;;;;8.05;7.25;;;14.80;97.70;;;;;;5049532;28;20037;-74
2022/05/01 09:18:04;;;;;;;10.02;7.15;;;14.80;91.00;;;;;;5048337;28;20028;-74
2022/05/01 09:20:30;;;;;;;12.98;8.27;;;;;;;;;;5048074;28;20094;-74
2022/05/01 09:22:58;;;;;;;10.50;7.38;;;14.70;88.60;;;;;;5049570;28;20470;-74
2022/05/01 09:25:27;;;;;;;9.93;8.90;;;14.50;96.30;;;;;;5049344;28;20496;-74
2022/05/01 09:27:57;;;;;;;12.45;8.63;;;14.10;96.70;;;;;;5050398;28;20024;-74
2022/05/01 09:30:31;;;;;;;12.60;10.82;;;13.90;97.10;;;;;;5049675;28;20025;-74
2022/05/01 09:32:58;;;;;;;12.38;8.15;;;14.00;97.50;;;;;;5049758;28;20021;-74
2022/05/01 09:35:35;;;;;;;12.27;8.63;;;13.60;97.90;;;;;;5048762;28;20036;-74
2022/05/01 09:38:13;;;;;;;8.82;7.03;;;13.70;97.80;;;;;;5048197;28;20040;-74
2022/05/01 09:40:39;;;;;;;9.82;7.90;;;13.80;97.70;;;;;;5049368;28;20386;-73
2022/05/01 09:43:04;;;;;;;8.88;7.28;;;13.90;97.60;;;;;;5049611;28;20043;-74
2022/05/01 09:45:31;;;;;;;7.55;6.63;;;13.80;97.50;;;;;;5049671;28;20087;-74
2022/05/01 09:47:57;;;;;;;10.90;6.85;;;13.50;97.70;;;;;;5065003;28;20520;-74
2022/05/01 09:50:40;;;;;;;8.50;6.28;;;13.50;98.00;;;;;;5049183;28;20029;-74
2022/05/01 09:53:06;;;;;;;9.50;6.37;;;13.40;98.20;;;;;;5046371;28;20029;-74
2022/05/01 09:55:32;;;;;;;9.05;5.88;;;13.50;98.10;;;;;;5046050;28;20074;-73
2022/05/01 09:58:12;;;;;;;8.05;6.72;;;13.30;98.00;;;;;;5048982;28;20044;-74
2022/05/01 10:00:46;;;;;;;7.10;6.40;;;13.20;98.20;;;;;;5049440;28;20039;-74
2022/05/01 10:03:23;;;;;;;6.70;5.80;;;13.30;98.20;;;;;;5049329;28;20021;-74
2022/05/01 10:05:50;;;;;;;9.68;7.25;;;13.10;98.40;;;;;;5048726;28;20039;-74
2022/05/01 10:08:18;;;;;;;8.70;6.68;;;13.30;98.40;;;;;;5045790;28;20064;-74
2022/05/01 10:10:45;;;;;;;9.80;7.60;;;13.10;98.40;;;;;;5049721;28;20061;-74
2022/05/01 10:13:12;;;;;;;10.00;8.10;;;13.20;98.50;;;;;;5038653;28;20075;-73
2022/05/01 10:15:38;;;;;;;13.68;8.02;;;12.70;98.50;;;;;;5030567;28;20037;-74
2022/05/01 10:18:04;;;;;;;7.07;6.38;;;13.10;98.50;;;;;;5031202;28;20013;-72
2022/05/01 10:20:30;;;;;;;6.82;6.10;;;13.20;98.50;;;;;;5044781;28;20512;-74
2022/05/01 10:22:56;;;;;;;8.23;6.53;;;13.20;91.40;;;;;;5029963;28;20048;-74
2022/05/01 10:25:22;;;;;;;6.88;6.18;;;13.20;98.20;;;;;;5040743;28;20490;-74
2022/05/01 10:28:20;;;;;;;7.95;6.57;;;13.20;98.30;;;;;;5050402;28;20103;-74
2022/05/01 10:34:49;;;;;;;11.80;7.85;;;13.60;98.30;;;;;;5043139;28;20083;-74
2022/05/01 10:37:52;;;;;;;9.82;7.88;;;13.60;98.00;;;;;;5029184;28;20025;-74
2022/05/01 10:40:18;;;;;;;8.20;7.35;;;13.30;97.90;;;;;;5041700;28;20044;-74
2022/05/01 10:42:46;;;;;;;9.40;6.30;;;13.90;97.70;;;;;;5048875;28;20028;-74
2022/05/01 10:45:23;;;;;;;7.35;6.45;;;14.10;97.70;;;;;;5047547;28;20082;-74
2022/05/01 10:47:54;;;;;;;7.75;6.32;;;14.00;97.20;;;;;;5049554;28;20110;-74
2022/05/01 10:50:25;;;;;;;8.00;6.95;;;14.20;90.00;;;;;;5049080;28;20021;-74
2022/05/01 10:53:12;;;;;;;6.15;5.55;;;15.10;90.90;;;;;;5049421;28;20466;-74
2022/05/01 10:55:42;;;;;;;7.03;5.75;;;14.30;96.40;;;;;;5049632;28;20048;-75
2022/05/01 10:58:19;;;;;;;8.38;7.05;;;15.00;90.00;;;;;;5049327;28;20033;-74
2022/05/01 11:00:46;;;;;;;8.25;7.18;;;15.20;89.80;;;;;;5049655;28;20036;-74
2022/05/01 11:03:29;;;;;;;10.23;7.82;;;14.70;87.20;;;;;;5053194;28;20017;-74
2022/05/01 11:06:04;;;;;;;8.38;6.18;;;14.60;95.20;;;;;;5052732;28;20033;-74
2022/05/01 11:08:39;;;;;;;8.95;7.18;;;14.90;95.20;;;;;;5052650;28;20025;-74
2022/05/01 11:11:07;;;;;;;7.50;6.70;;;14.90;86.70;;;;;;5052751;28;20485;-74
2022/05/01 11:13:38;;;;;;;8.70;6.90;;;15.00;86.00;;;;;;5063578;28;20159;-74
2022/05/01 11:16:05;;;;;;;8.70;6.97;;;15.10;85.70;;;;;;5051252;28;20116;-74
2022/05/01 11:18:41;;;;;;;8.68;6.88;;;15.50;84.90;;;;;;5051342;28;20040;-74
2022/05/01 11:21:24;;;;;;;8.20;6.55;;;15.30;82.50;;;;;;5052448;28;20521;-74
2022/05/01 11:24:13;;;;;;;6.70;5.70;;;15.50;85.10;;;;;;5052346;28;20405;-74
2022/05/01 11:27:11;;;;;;;6.45;5.55;;;15.70;84.30;;;;;;5052995;28;20466;-74
2022/05/01 11:29:37;;;;;;;7.70;6.43;;;15.90;83.30;;;;;;5051601;28;20037;-74
2022/05/01 11:32:41;;;;;;;6.50;5.80;;;16.20;93.60;;;;;;5052734;28;20029;-74
2022/05/01 11:35:07;;;;;;;9.33;7.03;;;16.20;82.30;;;;;;5052364;28;20054;-74
2022/05/01 11:38:08;;;;;;;7.22;6.53;;;16.30;80.90;;;;;;5051156;28;20318;-74
2022/05/01 11:40:34;;;;;;;11.48;6.70;;;16.50;79.40;;;;;;5049256;28;20041;-74
2022/05/01 11:43:18;;;;;;;9.10;6.68;;;16.70;79.20;;;;;;5051550;28;20033;-75
2022/05/01 11:45:45;;;;;;;5.22;4.72;;;16.70;79.00;;;;;;5050064;28;20114;-74
2022/05/01 11:48:12;;;;;;;5.22;4.45;;;16.70;78.10;;;;;;5051148;28;20032;-74
2022/05/01 11:50:39;;;;;;;8.05;7.30;;;16.90;90.80;;;;;;5051479;28;20550;-74
2022/05/01 11:53:15;;;;;;;10.95;6.45;;;16.90;76.80;;;;;;5050237;28;20393;-74
2022/05/01 12:04:22;;;;;;;6.78;5.13;;;17.10;74.80;;;;;;5051304;28;20068;-75
2022/05/01 12:06:47;;;;;;;5.35;4.53;;;17.30;76.60;;;;;;5051644;28;20025;-74
2022/05/01 12:09:17;;;;;;;6.70;5.38;;;17.60;75.20;;;;;;5051502;28;20028;-74
2022/05/01 12:11:46;;;;;;;8.00;5.07;;;17.80;75.30;;;;;;5051733;28;20029;-74
2022/05/01 12:14:13;;;;;;;7.38;5.25;;;17.80;74.70;;;;;;5051604;28;20395;-74
2022/05/01 12:16:40;;;;;;;7.00;5.05;;;17.80;73.60;;;;;;5051619;28;20112;-75
2022/05/01 12:19:07;;;;;;;6.53;5.00;;;17.80;73.60;;;;;;5051776;28;20100;-75
2022/05/01 12:21:33;;;;;;;7.05;5.50;;;17.90;73.10;;;;;;5052041;28;20388;-76
2022/05/01 12:24:08;;;;;;;5.68;4.03;;;17.90;72.80;;;;;;5052046;28;20075;-75
2022/05/01 12:26:55;;;;;;;6.93;5.88;;;18.20;73.10;;;;;;5051218;28;20041;-76
2022/05/01 12:29:22;;;;;;;6.10;5.50;;;18.10;72.50;;;;;;5049639;28;20037;-74
2022/05/01 12:32:07;;;;;;;5.75;4.93;;;18.10;72.00;;;;;;5051549;28;20041;-74
2022/05/01 12:34:52;;;;;;;5.18;4.10;;;18.20;72.40;;;;;;5050145;28;20478;-74
2022/05/01 12:37:20;;;;;;;5.22;4.53;;;18.20;72.30;;;;;;5051651;28;20033;-74
2022/05/01 12:40:03;;;;;;;5.72;4.93;;;18.40;72.00;;;;;;5066683;28;20045;-72
2022/05/01 12:45:46;;;;;;;5.57;5.07;;;18.50;68.80;;;;;;5051945;28;20509;-74
2022/05/01 12:48:13;;;;;;;5.45;4.90;;;18.70;71.10;;;;;;5054394;28;20076;-74
2022/05/01 12:50:40;;;;;;;5.38;4.88;;;18.70;69.50;;;;;;5051474;28;20036;-75
2022/05/01 12:53:25;;;;;;;6.15;5.60;;;18.60;68.80;;;;;;5051298;28;20087;-76
2022/05/01 12:55:51;;;;;;;6.57;5.25;;;18.60;67.50;;;;;;5052064;28;20036;-75
2022/05/01 12:58:32;;;;;;;5.35;4.85;;;18.60;68.70;;;;;;5052232;28;20021;-75
2022/05/01 13:00:59;;;;;;;5.40;4.90;;;18.50;69.60;;;;;;5050040;28;20029;-75
2022/05/01 13:03:38;;;;;;;6.63;5.65;;;18.50;68.40;;;;;;5050207;28;20500;-75
2022/05/01 13:06:10;;;;;;;4.82;4.43;;;18.20;68.60;;;;;;5050503;28;20371;-74
2022/05/01 13:08:42;;;;;;;7.47;6.72;;;18.00;69.00;;;;;;5050305;28;20060;-74
2022/05/01 13:11:26;;;;;;;7.07;5.60;;;17.90;65.90;;;;;;5049835;28;20028;-74
2022/05/01 13:14:08;;;;;;;;;;;17.70;68.90;;;;;;5048912;28;20021;-74
2022/05/01 13:16:33;;;;;;;5.53;5.03;;;17.50;67.90;;;;;;5044139;28;19909;-74
2022/05/01 13:19:02;;;;;;;9.00;4.85;;;17.40;69.10;;;;;;5049637;28;20021;-74
2022/05/01 13:21:30;;;;;;;6.28;5.68;;;17.50;70.30;;;;;;5038360;28;20029;-74
2022/05/01 13:24:03;;;;;;;7.20;6.00;;;17.50;69.90;;;;;;5045793;28;20142;-74
2022/05/01 13:26:28;;;;;;;6.22;5.63;;;17.50;68.10;;;;;;5048440;28;20474;-74
2022/05/01 13:28:55;;;;;;;6.60;5.50;;;17.50;69.40;;;;;;5049462;28;20032;-74
2022/05/01 13:31:21;;;;;;;8.75;6.97;;;17.40;69.80;;;;;;5046892;28;20028;-74
2022/05/01 13:33:47;;;;;;;6.28;5.20;;;17.40;69.10;;;;;;5048956;28;20025;-74